createdAt,value
2023-05-29T00:04:02.176Z,14.90
2023-05-29T00:09:03.862Z,14.82
2023-05-29T00:14:06.062Z,14.77
2023-05-29T00:19:10.005Z,14.73
2023-05-29T00:24:11.533Z,14.65
2023-05-29T00:29:13.043Z,14.58
2023-05-29T00:34:14.496Z,14.50
2023-05-29T00:39:16.425Z,14.38
2023-05-29T00:44:22.188Z,14.25
2023-05-29T00:49:24.482Z,14.12
2023-05-29T00:54:31.116Z,14.02
2023-05-29T00:59:34.298Z,13.91
2023-05-29T01:04:35.866Z,13.80
2023-05-29T01:09:38.090Z,13.67
2023-05-29T01:14:59.019Z,13.54
2023-05-29T01:20:06.033Z,13.40
2023-05-29T01:25:36.365Z,13.35
2023-05-29T01:30:39.197Z,13.31
2023-05-29T01:35:40.910Z,13.27
2023-05-29T01:40:42.379Z,13.18
2023-05-29T01:45:44.756Z,13.03
2023-05-29T01:50:47.281Z,12.94
2023-05-29T01:55:49.037Z,12.89
2023-05-29T02:00:50.644Z,12.83
2023-05-29T02:05:52.117Z,12.78
2023-05-29T02:10:54.349Z,12.74
2023-05-29T02:15:56.043Z,12.67
2023-05-29T02:20:57.865Z,12.63
2023-05-29T02:25:59.673Z,12.56
2023-05-29T02:31:01.183Z,12.48
2023-05-29T02:36:02.640Z,12.43
2023-05-29T02:41:04.182Z,12.38
2023-05-29T02:46:05.787Z,12.34
2023-05-29T02:51:07.444Z,12.36
2023-05-29T02:56:10.107Z,12.34
2023-05-29T03:01:11.921Z,12.40
2023-05-29T03:06:18.909Z,12.41
2023-05-29T03:11:22.101Z,12.41
2023-05-29T03:16:23.686Z,12.41
2023-05-29T03:21:25.528Z,12.40
2023-05-29T03:26:27.584Z,12.44
2023-05-29T03:31:29.162Z,12.54
2023-05-29T03:36:30.619Z,12.65
2023-05-29T03:41:32.066Z,12.78
2023-05-29T03:46:33.556Z,12.87
2023-05-29T03:51:35.151Z,13.01
2023-05-29T03:56:37.092Z,13.23
2023-05-29T04:01:38.715Z,13.33
2023-05-29T04:06:40.245Z,13.65
2023-05-29T04:11:42.783Z,13.82
2023-05-29T04:16:44.523Z,13.85
2023-05-29T04:21:46.414Z,13.97
2023-05-29T04:26:48.009Z,14.17
2023-05-29T04:31:49.525Z,14.38
2023-05-29T04:36:50.970Z,14.55
2023-05-29T04:41:52.946Z,14.62
2023-05-29T04:46:54.507Z,14.87
2023-05-29T04:51:56.104Z,15.19
2023-05-29T04:56:57.554Z,15.56
2023-05-29T05:01:59.044Z,15.93
2023-05-29T05:07:00.533Z,16.17
2023-05-29T05:12:02.440Z,16.46
2023-05-29T05:17:04.071Z,16.54
2023-05-29T05:22:05.517Z,16.73
2023-05-29T05:27:07.467Z,16.95
2023-05-29T05:32:08.990Z,17.22
2023-05-29T05:37:11.088Z,17.44
2023-05-29T05:42:12.523Z,17.42
2023-05-29T05:47:14.337Z,17.70
2023-05-29T05:52:16.078Z,17.80
2023-05-29T05:57:17.536Z,18.16
2023-05-29T06:02:19.126Z,18.42
2023-05-29T06:07:20.648Z,18.51
2023-05-29T06:12:22.196Z,18.80
2023-05-29T06:17:24.730Z,19.10
2023-05-29T06:22:26.222Z,19.13
2023-05-29T06:27:27.687Z,19.41
2023-05-29T06:32:29.649Z,19.60
2023-05-29T06:37:31.519Z,19.77
2023-05-29T06:42:33.009Z,19.82
2023-05-29T06:47:34.573Z,20.11
2023-05-29T06:52:36.209Z,20.31
2023-05-29T06:57:37.681Z,20.11
2023-05-29T07:02:39.282Z,20.33
2023-05-29T07:07:40.841Z,20.67
2023-05-29T07:12:42.319Z,20.82
2023-05-29T07:17:43.821Z,21.03
2023-05-29T07:22:45.677Z,21.19
2023-05-29T07:27:47.176Z,21.50
2023-05-29T07:32:48.663Z,21.48
2023-05-29T07:37:50.857Z,21.88
2023-05-29T07:42:52.339Z,22.08
2023-05-29T07:47:53.809Z,22.21
2023-05-29T07:52:56.997Z,22.18
2023-05-29T08:02:59.961Z,22.37
2023-05-29T08:08:01.679Z,22.56
2023-05-29T08:13:03.215Z,22.74
2023-05-29T08:18:05.443Z,22.83
2023-05-29T08:23:07.014Z,22.74
2023-05-29T08:28:08.484Z,22.47
2023-05-29T08:33:10.072Z,22.60
2023-05-29T08:38:11.610Z,22.45
2023-05-29T08:43:20.919Z,22.59
2023-05-29T08:48:26.339Z,22.67
2023-05-29T08:53:27.883Z,22.80
2023-05-29T08:58:29.516Z,23.01
2023-05-29T09:03:31.078Z,23.09
2023-05-29T09:08:34.087Z,23.34
2023-05-29T09:13:35.858Z,23.56
2023-05-29T09:18:37.354Z,23.75
2023-05-29T09:23:38.809Z,23.84
2023-05-29T09:28:40.974Z,23.61
2023-05-29T09:33:49.907Z,23.71
2023-05-29T09:38:54.958Z,23.83
2023-05-29T09:44:01.903Z,23.80
2023-05-29T09:49:06.825Z,23.82
2023-05-29T09:54:18.215Z,23.51
2023-05-29T09:59:22.188Z,23.53
2023-05-29T10:04:25.259Z,23.75
2023-05-29T10:09:28.455Z,24.05
2023-05-29T10:14:32.844Z,23.82
2023-05-29T10:19:37.918Z,23.81
2023-05-29T10:24:39.749Z,23.83
2023-05-29T10:29:54.554Z,24.09
2023-05-29T10:35:09.978Z,24.02
2023-05-29T10:40:15.719Z,24.24
2023-05-29T10:45:29.452Z,23.96
2023-05-29T10:50:39.378Z,23.89
2023-05-29T10:55:42.067Z,24.06
2023-05-29T11:00:43.981Z,24.11
2023-05-29T11:06:09.095Z,24.08
2023-05-29T11:11:16.754Z,23.87
2023-05-29T11:16:37.984Z,24.08
2023-05-29T11:21:54.126Z,24.47
2023-05-29T11:26:57.467Z,24.54
2023-05-29T11:32:03.984Z,24.57
2023-05-29T11:37:05.987Z,24.58
2023-05-29T11:42:08.646Z,24.61
2023-05-29T11:47:10.147Z,24.15
2023-05-29T11:57:22.244Z,24.23
2023-05-29T12:02:26.265Z,24.52
2023-05-29T12:07:27.810Z,24.89
2023-05-29T12:12:30.528Z,24.64
2023-05-29T12:17:32.591Z,24.37
2023-05-29T12:22:36.046Z,24.56
2023-05-29T12:27:43.491Z,24.68
2023-05-29T12:32:54.250Z,24.69
2023-05-29T12:38:00.927Z,25.11
2023-05-29T12:43:04.472Z,24.67
2023-05-29T12:48:10.872Z,24.12
2023-05-29T12:53:15.047Z,24.17
2023-05-29T12:58:16.964Z,23.99
2023-05-29T13:03:19.013Z,24.19
2023-05-29T13:08:21.376Z,24.44
2023-05-29T13:13:23.941Z,24.47
2023-05-29T13:18:25.454Z,24.50
2023-05-29T13:23:29.062Z,24.88
2023-05-29T13:28:30.870Z,25.05
2023-05-29T13:33:32.815Z,25.08
2023-05-29T13:38:34.262Z,24.99
2023-05-29T13:43:43.645Z,24.83
2023-05-29T13:48:46.483Z,25.03
2023-05-29T13:53:47.954Z,24.86
2023-05-29T13:58:49.413Z,24.82
2023-05-29T14:03:51.104Z,25.02
2023-05-29T14:08:52.886Z,24.87
2023-05-29T14:13:54.340Z,24.91
2023-05-29T14:18:55.796Z,24.80
2023-05-29T14:23:57.261Z,24.74
2023-05-29T14:29:09.386Z,24.88
2023-05-29T14:34:15.331Z,24.90
2023-05-29T14:39:16.842Z,24.88
2023-05-29T14:44:18.918Z,24.99
2023-05-29T14:49:20.819Z,25.20
2023-05-29T14:54:22.324Z,25.36
2023-05-29T14:59:24.477Z,25.30
2023-05-29T15:04:26.087Z,25.17
2023-05-29T15:09:27.774Z,25.09
2023-05-29T15:14:29.421Z,24.95
2023-05-29T15:19:31.526Z,24.81
2023-05-29T15:24:32.994Z,24.74
2023-05-29T15:29:36.072Z,24.82
2023-05-29T15:34:37.581Z,24.88
2023-05-29T15:39:39.771Z,24.87
2023-05-29T15:44:41.209Z,24.88
2023-05-29T15:49:42.656Z,24.72
2023-05-29T15:54:44.346Z,24.74
2023-05-29T15:59:45.932Z,24.70
2023-05-29T16:04:59.020Z,24.83
2023-05-29T16:10:07.894Z,24.63
2023-05-29T16:15:09.703Z,24.66
2023-05-29T16:20:12.149Z,24.52
2023-05-29T16:25:13.728Z,24.34
2023-05-29T16:30:15.370Z,24.27
2023-05-29T16:35:16.982Z,23.86
2023-05-29T16:40:21.109Z,23.65
2023-05-29T16:45:22.644Z,23.63
2023-05-29T16:50:24.824Z,23.55
2023-05-29T16:55:26.667Z,23.56
2023-05-29T17:00:28.341Z,23.56
2023-05-29T17:05:29.772Z,23.47
2023-05-29T17:10:34.066Z,23.36
2023-05-29T17:15:35.533Z,23.03
2023-05-29T17:20:37.080Z,23.00
2023-05-29T17:25:38.598Z,22.89
2023-05-29T17:30:40.084Z,22.91
2023-05-29T17:35:41.572Z,22.76
2023-05-29T17:40:43.077Z,22.79
2023-05-29T17:45:47.090Z,22.72
2023-05-29T17:50:48.773Z,22.53
2023-05-29T17:55:50.381Z,22.53
2023-05-29T18:00:52.256Z,22.40
2023-05-29T18:05:54.946Z,22.26
2023-05-29T18:10:57.003Z,22.16
2023-05-29T18:15:58.719Z,22.11
2023-05-29T18:21:00.348Z,21.81
2023-05-29T18:26:02.077Z,21.69
2023-05-29T18:31:03.698Z,21.54
2023-05-29T18:36:05.368Z,21.41
2023-05-29T18:41:07.011Z,21.35
2023-05-29T18:46:08.649Z,21.25
2023-05-29T18:51:11.463Z,21.14
2023-05-29T18:56:13.005Z,21.04
2023-05-29T19:01:29.973Z,20.95
2023-05-29T19:06:33.537Z,20.91
2023-05-29T19:11:35.089Z,20.84
2023-05-29T19:16:36.541Z,20.78
2023-05-29T19:21:38.420Z,20.66
2023-05-29T19:26:42.776Z,20.53
2023-05-29T19:31:44.291Z,20.48
2023-05-29T19:36:45.833Z,20.39
2023-05-29T19:41:47.305Z,20.36
2023-05-29T19:46:49.085Z,20.38
2023-05-29T19:51:59.107Z,20.30
2023-05-29T19:57:01.014Z,20.30
2023-05-29T20:02:02.855Z,20.40
2023-05-29T20:07:04.576Z,20.35
2023-05-29T20:12:06.973Z,20.40
2023-05-29T20:17:08.676Z,20.27
2023-05-29T20:22:10.220Z,20.22
2023-05-29T20:27:11.894Z,20.13
2023-05-29T20:32:13.414Z,20.09
2023-05-29T20:37:15.493Z,20.05
2023-05-29T20:42:17.532Z,20.03
2023-05-29T20:47:19.669Z,19.97
2023-05-29T20:52:21.977Z,19.94
2023-05-29T20:57:23.554Z,19.93
2023-05-29T21:02:25.067Z,19.84
2023-05-29T21:07:35.281Z,19.76
2023-05-29T21:12:37.167Z,19.75
2023-05-29T21:17:38.783Z,19.70
2023-05-29T21:22:40.535Z,19.64
2023-05-29T21:27:42.009Z,19.55
2023-05-29T21:32:43.652Z,19.51
2023-05-29T21:37:45.658Z,19.54
2023-05-29T21:42:51.762Z,19.52
2023-05-29T21:47:54.943Z,19.42
2023-05-29T21:52:56.709Z,19.27
2023-05-29T21:57:58.164Z,19.22
2023-05-29T22:02:59.888Z,19.14
2023-05-29T22:08:01.428Z,19.15
2023-05-29T22:13:03.691Z,19.08
2023-05-29T22:18:05.627Z,19.14
2023-05-29T22:23:17.046Z,18.99
2023-05-29T22:28:19.714Z,18.91
2023-05-29T22:33:21.891Z,18.73
2023-05-29T22:38:23.379Z,18.77
2023-05-29T22:43:24.844Z,18.63
2023-05-29T22:48:27.050Z,18.59
2023-05-29T22:53:28.756Z,18.56
2023-05-29T22:58:30.217Z,18.57
2023-05-29T23:03:31.845Z,18.49
2023-05-29T23:08:33.450Z,18.39
2023-05-29T23:13:34.947Z,18.30
2023-05-29T23:18:37.017Z,18.31
2023-05-29T23:23:38.797Z,18.16
2023-05-29T23:28:40.702Z,18.22
2023-05-29T23:33:42.898Z,18.07
2023-05-29T23:38:44.359Z,18.03
2023-05-29T23:43:46.184Z,17.94
2023-05-29T23:48:48.708Z,17.80
2023-05-29T23:53:50.259Z,17.75
2023-05-29T23:58:52.389Z,17.57
